sensor_id;sensor_type;location;lat;lon;timestamp;temperature;humidity
3298;DHT22;1661;53.572;10.174;2022-11-15T00:02:24;7.70;88.70
3298;DHT22;1661;53.572;10.174;2022-11-15T00:04:52;7.70;88.40
3298;DHT22;1661;53.572;10.174;2022-11-15T00:07:19;7.70;88.10
3298;DHT22;1661;53.572;10.174;2022-11-15T00:09:46;7.70;88.10
3298;DHT22;1661;53.572;10.174;2022-11-15T00:12:12;7.60;88.10
3298;DHT22;1661;53.572;10.174;2022-11-15T00:14:39;7.60;88.10
3298;DHT22;1661;53.572;10.174;2022-11-15T00:17:07;7.60;88.00
3298;DHT22;1661;53.572;10.174;2022-11-15T00:19:37;7.60;88.00
3298;DHT22;1661;53.572;10.174;2022-11-15T00:22:04;7.60;88.00
3298;DHT22;1661;53.572;10.174;2022-11-15T00:24:31;7.60;88.00
3298;DHT22;1661;53.572;10.174;2022-11-15T00:26:58;7.60;87.90
3298;DHT22;1661;53.572;10.174;2022-11-15T00:29:25;7.60;87.70
3298;DHT22;1661;53.572;10.174;2022-11-15T00:31:52;7.60;87.70
3298;DHT22;1661;53.572;10.174;2022-11-15T00:34:21;7.60;87.60
3298;DHT22;1661;53.572;10.174;2022-11-15T00:36:47;7.60;87.70
3298;DHT22;1661;53.572;10.174;2022-11-15T00:39:14;7.60;87.80
3298;DHT22;1661;53.572;10.174;2022-11-15T00:41:41;7.50;87.90
3298;DHT22;1661;53.572;10.174;2022-11-15T00:44:08;7.50;87.90
3298;DHT22;1661;53.572;10.174;2022-11-15T00:46:35;7.50;88.00
3298;DHT22;1661;53.572;10.174;2022-11-15T00:49:05;7.50;88.00
3298;DHT22;1661;53.572;10.174;2022-11-15T00:51:33;7.60;88.10
3298;DHT22;1661;53.572;10.174;2022-11-15T00:54:00;7.60;88.10
3298;DHT22;1661;53.572;10.174;2022-11-15T00:56:27;7.60;88.10
3298;DHT22;1661;53.572;10.174;2022-11-15T00:58:53;7.60;88.10
3298;DHT22;1661;53.572;10.174;2022-11-15T01:01:20;7.60;87.90
3298;DHT22;1661;53.572;10.174;2022-11-15T01:03:50;7.50;87.80
3298;DHT22;1661;53.572;10.174;2022-11-15T01:06:17;7.60;87.80
3298;DHT22;1661;53.572;10.174;2022-11-15T01:08:45;7.50;87.80
3298;DHT22;1661;53.572;10.174;2022-11-15T01:11:12;7.50;88.10
3298;DHT22;1661;53.572;10.174;2022-11-15T01:13:39;7.50;88.30
3298;DHT22;1661;53.572;10.174;2022-11-15T01:16:08;7.50;88.60
3298;DHT22;1661;53.572;10.174;2022-11-15T01:18:35;7.50;88.70
3298;DHT22;1661;53.572;10.174;2022-11-15T01:21:05;7.50;88.70
3298;DHT22;1661;53.572;10.174;2022-11-15T01:23:32;7.50;88.70
3298;DHT22;1661;53.572;10.174;2022-11-15T01:26:02;7.50;88.60
3298;DHT22;1661;53.572;10.174;2022-11-15T01:28:33;7.50;88.70
3298;DHT22;1661;53.572;10.174;2022-11-15T01:31:00;7.50;88.60
3298;DHT22;1661;53.572;10.174;2022-11-15T01:33:27;7.60;88.40
3298;DHT22;1661;53.572;10.174;2022-11-15T01:35:55;7.50;88.30
3298;DHT22;1661;53.572;10.174;2022-11-15T01:38:22;7.50;88.40
3298;DHT22;1661;53.572;10.174;2022-11-15T01:40:49;7.50;88.40
3298;DHT22;1661;53.572;10.174;2022-11-15T01:43:22;7.50;88.50
3298;DHT22;1661;53.572;10.174;2022-11-15T01:45:51;7.50;88.40
3298;DHT22;1661;53.572;10.174;2022-11-15T01:48:19;7.50;88.30
3298;DHT22;1661;53.572;10.174;2022-11-15T01:50:46;7.50;88.20
3298;DHT22;1661;53.572;10.174;2022-11-15T01:53:14;7.50;87.90
3298;DHT22;1661;53.572;10.174;2022-11-15T01:55:41;7.50;87.80
3298;DHT22;1661;53.572;10.174;2022-11-15T01:58:27;7.50;87.90
3298;DHT22;1661;53.572;10.174;2022-11-15T02:00:54;7.40;87.80
3298;DHT22;1661;53.572;10.174;2022-11-15T02:03:23;7.40;88.00
3298;DHT22;1661;53.572;10.174;2022-11-15T02:05:53;7.40;87.90
3298;DHT22;1661;53.572;10.174;2022-11-15T02:08:23;7.40;87.80
3298;DHT22;1661;53.572;10.174;2022-11-15T02:10:50;7.50;87.60
3298;DHT22;1661;53.572;10.174;2022-11-15T02:13:17;7.40;87.30
3298;DHT22;1661;53.572;10.174;2022-11-15T02:15:58;7.50;87.00
3298;DHT22;1661;53.572;10.174;2022-11-15T02:18:28;7.40;86.80
3298;DHT22;1661;53.572;10.174;2022-11-15T02:21:12;7.50;86.50
3298;DHT22;1661;53.572;10.174;2022-11-15T02:24:20;7.40;86.40
3298;DHT22;1661;53.572;10.174;2022-11-15T02:30:04;7.40;86.40
3298;DHT22;1661;53.572;10.174;2022-11-15T02:32:38;7.40;86.30
3298;DHT22;1661;53.572;10.174;2022-11-15T02:35:13;7.30;86.30
3298;DHT22;1661;53.572;10.174;2022-11-15T02:37:52;7.30;86.40
3298;DHT22;1661;53.572;10.174;2022-11-15T02:40:29;7.30;86.30
3298;DHT22;1661;53.572;10.174;2022-11-15T02:43:07;7.30;86.10
3298;DHT22;1661;53.572;10.174;2022-11-15T02:45:56;7.30;86.20
3298;DHT22;1661;53.572;10.174;2022-11-15T02:48:28;7.30;86.20
3298;DHT22;1661;53.572;10.174;2022-11-15T02:50:55;7.20;86.10
3298;DHT22;1661;53.572;10.174;2022-11-15T02:53:24;7.20;86.00
3298;DHT22;1661;53.572;10.174;2022-11-15T02:55:51;7.20;85.90
3298;DHT22;1661;53.572;10.174;2022-11-15T03:01:15;7.20;85.70
3298;DHT22;1661;53.572;10.174;2022-11-15T03:03:59;7.20;85.60
3298;DHT22;1661;53.572;10.174;2022-11-15T03:06:35;7.10;85.70
3298;DHT22;1661;53.572;10.174;2022-11-15T03:09:07;7.10;85.80
3298;DHT22;1661;53.572;10.174;2022-11-15T03:11:39;7.10;85.70
3298;DHT22;1661;53.572;10.174;2022-11-15T03:14:15;7.10;85.80
3298;DHT22;1661;53.572;10.174;2022-11-15T03:16:53;7.10;85.90
3298;DHT22;1661;53.572;10.174;2022-11-15T03:19:29;7.00;86.10
3298;DHT22;1661;53.572;10.174;2022-11-15T03:22:00;7.00;86.20
3298;DHT22;1661;53.572;10.174;2022-11-15T03:24:29;7.00;86.30
3298;DHT22;1661;53.572;10.174;2022-11-15T03:26:59;7.00;86.30
3298;DHT22;1661;53.572;10.174;2022-11-15T03:29:31;7.00;86.30
3298;DHT22;1661;53.572;10.174;2022-11-15T03:32:00;7.00;86.30
3298;DHT22;1661;53.572;10.174;2022-11-15T03:34:37;7.00;87.20
3298;DHT22;1661;53.572;10.174;2022-11-15T03:37:06;6.90;87.40
3298;DHT22;1661;53.572;10.174;2022-11-15T03:39:36;7.00;87.30
3298;DHT22;1661;53.572;10.174;2022-11-15T03:42:11;7.00;86.90
3298;DHT22;1661;53.572;10.174;2022-11-15T03:44:47;7.00;86.60
3298;DHT22;1661;53.572;10.174;2022-11-15T03:47:21;7.00;86.50
3298;DHT22;1661;53.572;10.174;2022-11-15T03:49:53;7.00;86.40
3298;DHT22;1661;53.572;10.174;2022-11-15T03:52:22;7.00;86.50
3298;DHT22;1661;53.572;10.174;2022-11-15T03:54:51;7.00;86.40
3298;DHT22;1661;53.572;10.174;2022-11-15T03:57:22;7.00;86.50
3298;DHT22;1661;53.572;10.174;2022-11-15T03:59:49;6.90;87.10
3298;DHT22;1661;53.572;10.174;2022-11-15T04:02:16;6.90;87.30
3298;DHT22;1661;53.572;10.174;2022-11-15T04:04:43;6.90;87.30
3298;DHT22;1661;53.572;10.174;2022-11-15T04:07:11;6.90;87.20
3298;DHT22;1661;53.572;10.174;2022-11-15T04:09:38;6.90;87.00
3298;DHT22;1661;53.572;10.174;2022-11-15T04:12:25;7.00;87.00
3298;DHT22;1661;53.572;10.174;2022-11-15T04:14:58;7.00;87.20
3298;DHT22;1661;53.572;10.174;2022-11-15T04:17:35;6.90;87.30
3298;DHT22;1661;53.572;10.174;2022-11-15T04:20:06;6.90;87.20
3298;DHT22;1661;53.572;10.174;2022-11-15T04:22:54;6.90;87.00
3298;DHT22;1661;53.572;10.174;2022-11-15T04:25:38;6.90;86.70
3298;DHT22;1661;53.572;10.174;2022-11-15T04:28:05;6.90;86.70
3298;DHT22;1661;53.572;10.174;2022-11-15T04:30:32;6.90;87.10
3298;DHT22;1661;53.572;10.174;2022-11-15T04:32:59;6.90;87.20
3298;DHT22;1661;53.572;10.174;2022-11-15T04:35:26;6.90;87.40
3298;DHT22;1661;53.572;10.174;2022-11-15T04:37:54;6.90;87.80
3298;DHT22;1661;53.572;10.174;2022-11-15T04:40:20;6.90;88.20
3298;DHT22;1661;53.572;10.174;2022-11-15T04:42:47;6.90;88.50
3298;DHT22;1661;53.572;10.174;2022-11-15T04:45:14;6.90;89.10
3298;DHT22;1661;53.572;10.174;2022-11-15T04:47:43;6.90;89.40
3298;DHT22;1661;53.572;10.174;2022-11-15T04:50:10;6.90;89.60
3298;DHT22;1661;53.572;10.174;2022-11-15T04:52:39;6.90;89.70
3298;DHT22;1661;53.572;10.174;2022-11-15T04:55:08;6.90;89.70
3298;DHT22;1661;53.572;10.174;2022-11-15T04:57:35;7.00;89.50
3298;DHT22;1661;53.572;10.174;2022-11-15T05:00:03;7.00;89.40
3298;DHT22;1661;53.572;10.174;2022-11-15T05:02:31;7.00;89.60
3298;DHT22;1661;53.572;10.174;2022-11-15T05:05:11;7.00;89.70
3298;DHT22;1661;53.572;10.174;2022-11-15T05:07:38;7.00;89.70
3298;DHT22;1661;53.572;10.174;2022-11-15T05:10:07;7.10;89.60
3298;DHT22;1661;53.572;10.174;2022-11-15T05:12:34;7.10;89.50
3298;DHT22;1661;53.572;10.174;2022-11-15T05:15:01;7.10;89.50
3298;DHT22;1661;53.572;10.174;2022-11-15T05:17:28;7.10;89.40
3298;DHT22;1661;53.572;10.174;2022-11-15T05:19:55;7.20;89.30
3298;DHT22;1661;53.572;10.174;2022-11-15T05:22:22;7.20;89.50
3298;DHT22;1661;53.572;10.174;2022-11-15T05:24:48;7.20;89.60
3298;DHT22;1661;53.572;10.174;2022-11-15T05:27:19;7.20;89.80
3298;DHT22;1661;53.572;10.174;2022-11-15T05:29:51;7.30;89.80
3298;DHT22;1661;53.572;10.174;2022-11-15T05:32:18;7.30;89.90
3298;DHT22;1661;53.572;10.174;2022-11-15T05:34:45;7.20;90.10
3298;DHT22;1661;53.572;10.174;2022-11-15T05:37:12;7.20;90.30
3298;DHT22;1661;53.572;10.174;2022-11-15T05:39:39;7.20;90.50
3298;DHT22;1661;53.572;10.174;2022-11-15T05:42:09;7.20;90.80
3298;DHT22;1661;53.572;10.174;2022-11-15T05:44:40;7.20;91.00
3298;DHT22;1661;53.572;10.174;2022-11-15T05:47:13;7.20;91.00
3298;DHT22;1661;53.572;10.174;2022-11-15T05:49:43;7.20;91.10
3298;DHT22;1661;53.572;10.174;2022-11-15T05:52:14;7.30;91.20
3298;DHT22;1661;53.572;10.174;2022-11-15T05:54:43;7.30;91.30
3298;DHT22;1661;53.572;10.174;2022-11-15T05:57:10;7.30;91.30
3298;DHT22;1661;53.572;10.174;2022-11-15T05:59:42;7.40;91.60
3298;DHT22;1661;53.572;10.174;2022-11-15T06:02:09;7.40;91.50
3298;DHT22;1661;53.572;10.174;2022-11-15T06:04:36;7.50;91.40
3298;DHT22;1661;53.572;10.174;2022-11-15T06:07:03;7.50;91.20
3298;DHT22;1661;53.572;10.174;2022-11-15T06:09:30;7.60;91.20
3298;DHT22;1661;53.572;10.174;2022-11-15T06:11:57;7.60;91.20
3298;DHT22;1661;53.572;10.174;2022-11-15T06:14:23;7.60;91.10
3298;DHT22;1661;53.572;10.174;2022-11-15T06:16:54;7.70;90.90
3298;DHT22;1661;53.572;10.174;2022-11-15T06:19:24;7.70;90.80
3298;DHT22;1661;53.572;10.174;2022-11-15T06:21:51;7.70;90.60
3298;DHT22;1661;53.572;10.174;2022-11-15T06:24:21;7.80;90.50
3298;DHT22;1661;53.572;10.174;2022-11-15T06:26:52;7.80;90.50
3298;DHT22;1661;53.572;10.174;2022-11-15T06:29:18;7.80;90.50
3298;DHT22;1661;53.572;10.174;2022-11-15T06:31:45;7.90;90.40
3298;DHT22;1661;53.572;10.174;2022-11-15T06:34:13;7.80;90.30
3298;DHT22;1661;53.572;10.174;2022-11-15T06:36:40;7.90;90.30
3298;DHT22;1661;53.572;10.174;2022-11-15T06:39:07;7.80;90.40
3298;DHT22;1661;53.572;10.174;2022-11-15T06:41:34;7.80;90.40
3298;DHT22;1661;53.572;10.174;2022-11-15T06:44:01;7.80;90.40
3298;DHT22;1661;53.572;10.174;2022-11-15T06:46:28;7.80;90.30
3298;DHT22;1661;53.572;10.174;2022-11-15T06:48:55;7.80;90.30
3298;DHT22;1661;53.572;10.174;2022-11-15T06:51:23;7.80;90.10
3298;DHT22;1661;53.572;10.174;2022-11-15T06:53:50;7.80;90.20
3298;DHT22;1661;53.572;10.174;2022-11-15T06:56:17;7.80;90.20
3298;DHT22;1661;53.572;10.174;2022-11-15T06:58:44;7.70;90.30
3298;DHT22;1661;53.572;10.174;2022-11-15T07:01:12;7.80;90.30
3298;DHT22;1661;53.572;10.174;2022-11-15T07:03:41;7.80;90.20
3298;DHT22;1661;53.572;10.174;2022-11-15T07:06:08;7.90;90.10
3298;DHT22;1661;53.572;10.174;2022-11-15T07:08:42;7.90;90.00
3298;DHT22;1661;53.572;10.174;2022-11-15T07:11:09;7.90;90.00
3298;DHT22;1661;53.572;10.174;2022-11-15T07:13:36;7.90;89.80
3298;DHT22;1661;53.572;10.174;2022-11-15T07:16:04;7.90;89.80
3298;DHT22;1661;53.572;10.174;2022-11-15T07:18:33;7.90;89.80
3298;DHT22;1661;53.572;10.174;2022-11-15T07:21:02;7.90;89.80
3298;DHT22;1661;53.572;10.174;2022-11-15T07:23:29;7.90;89.70
3298;DHT22;1661;53.572;10.174;2022-11-15T07:25:58;7.90;89.90
3298;DHT22;1661;53.572;10.174;2022-11-15T07:28:28;8.00;89.90
3298;DHT22;1661;53.572;10.174;2022-11-15T07:30:55;8.00;89.70
3298;DHT22;1661;53.572;10.174;2022-11-15T07:33:22;8.00;89.50
3298;DHT22;1661;53.572;10.174;2022-11-15T07:35:49;8.10;89.50
3298;DHT22;1661;53.572;10.174;2022-11-15T07:38:16;8.10;89.50
3298;DHT22;1661;53.572;10.174;2022-11-15T07:40:56;8.10;89.50
3298;DHT22;1661;53.572;10.174;2022-11-15T07:43:24;8.10;89.60
3298;DHT22;1661;53.572;10.174;2022-11-15T07:45:53;8.10;89.50
3298;DHT22;1661;53.572;10.174;2022-11-15T07:48:20;8.10;89.50
3298;DHT22;1661;53.572;10.174;2022-11-15T07:50:46;8.20;89.30
3298;DHT22;1661;53.572;10.174;2022-11-15T07:53:16;8.20;89.20
3298;DHT22;1661;53.572;10.174;2022-11-15T07:55:43;8.30;89.10
3298;DHT22;1661;53.572;10.174;2022-11-15T07:58:12;8.20;89.00
3298;DHT22;1661;53.572;10.174;2022-11-15T08:00:40;8.30;89.10
3298;DHT22;1661;53.572;10.174;2022-11-15T08:03:09;8.20;89.10
3298;DHT22;1661;53.572;10.174;2022-11-15T08:05:39;8.20;89.10
3298;DHT22;1661;53.572;10.174;2022-11-15T08:08:07;8.30;89.10
3298;DHT22;1661;53.572;10.174;2022-11-15T08:10:34;8.30;89.20
3298;DHT22;1661;53.572;10.174;2022-11-15T08:13:06;8.30;89.10
3298;DHT22;1661;53.572;10.174;2022-11-15T08:15:34;8.40;89.10
3298;DHT22;1661;53.572;10.174;2022-11-15T08:18:06;8.40;89.00
3298;DHT22;1661;53.572;10.174;2022-11-15T08:20:38;8.40;88.80
3298;DHT22;1661;53.572;10.174;2022-11-15T08:23:06;8.40;88.90
3298;DHT22;1661;53.572;10.174;2022-11-15T08:25:33;8.50;89.00
3298;DHT22;1661;53.572;10.174;2022-11-15T08:28:02;8.50;89.00
3298;DHT22;1661;53.572;10.174;2022-11-15T08:30:30;8.50;88.80
3298;DHT22;1661;53.572;10.174;2022-11-15T08:32:58;8.60;89.00
3298;DHT22;1661;53.572;10.174;2022-11-15T10:20:17;10.70;87.00
3298;DHT22;1661;53.572;10.174;2022-11-15T10:22:46;10.90;86.50
3298;DHT22;1661;53.572;10.174;2022-11-15T10:25:22;10.90;86.20
3298;DHT22;1661;53.572;10.174;2022-11-15T10:27:57;11.00;86.00
3298;DHT22;1661;53.572;10.174;2022-11-15T10:30:31;11.00;85.70
3298;DHT22;1661;53.572;10.174;2022-11-15T10:33:09;11.10;85.60
3298;DHT22;1661;53.572;10.174;2022-11-15T10:35:38;11.20;85.40
3298;DHT22;1661;53.572;10.174;2022-11-15T10:38:08;11.20;85.20
3298;DHT22;1661;53.572;10.174;2022-11-15T10:40:36;11.30;85.00
3298;DHT22;1661;53.572;10.174;2022-11-15T10:43:10;11.30;84.80
3298;DHT22;1661;53.572;10.174;2022-11-15T10:45:39;11.30;84.50
3298;DHT22;1661;53.572;10.174;2022-11-15T10:48:22;11.30;84.40
3298;DHT22;1661;53.572;10.174;2022-11-15T10:50:52;11.30;84.50
3298;DHT22;1661;53.572;10.174;2022-11-15T10:53:38;11.30;84.60
3298;DHT22;1661;53.572;10.174;2022-11-15T10:56:11;11.40;84.60
3298;DHT22;1661;53.572;10.174;2022-11-15T10:58:39;11.40;84.20
3298;DHT22;1661;53.572;10.174;2022-11-15T11:01:13;11.50;84.10
3298;DHT22;1661;53.572;10.174;2022-11-15T11:03:42;11.50;84.10
3298;DHT22;1661;53.572;10.174;2022-11-15T11:06:12;11.60;84.00
3298;DHT22;1661;53.572;10.174;2022-11-15T11:08:40;11.60;84.00
3298;DHT22;1661;53.572;10.174;2022-11-15T11:11:07;11.60;83.90
3298;DHT22;1661;53.572;10.174;2022-11-15T11:13:35;11.60;83.90
3298;DHT22;1661;53.572;10.174;2022-11-15T11:16:25;11.70;83.90
3298;DHT22;1661;53.572;10.174;2022-11-15T11:19:08;11.70;83.90
3298;DHT22;1661;53.572;10.174;2022-11-15T11:21:46;11.70;83.90
3298;DHT22;1661;53.572;10.174;2022-11-15T11:24:20;11.80;84.00
3298;DHT22;1661;53.572;10.174;2022-11-15T11:27:01;11.80;84.00
3298;DHT22;1661;53.572;10.174;2022-11-15T11:29:41;11.90;84.20
3298;DHT22;1661;53.572;10.174;2022-11-15T11:32:24;11.90;84.00
3298;DHT22;1661;53.572;10.174;2022-11-15T11:35:00;12.00;83.80
3298;DHT22;1661;53.572;10.174;2022-11-15T11:37:35;12.00;83.60
3298;DHT22;1661;53.572;10.174;2022-11-15T11:40:19;12.10;83.50
3298;DHT22;1661;53.572;10.174;2022-11-15T11:42:54;12.10;83.50
3298;DHT22;1661;53.572;10.174;2022-11-15T11:45:37;12.20;83.40
3298;DHT22;1661;53.572;10.174;2022-11-15T11:48:12;12.20;83.30
3298;DHT22;1661;53.572;10.174;2022-11-15T11:50:41;12.20;83.10
3298;DHT22;1661;53.572;10.174;2022-11-15T11:53:14;12.20;83.10
3298;DHT22;1661;53.572;10.174;2022-11-15T11:55:45;12.30;83.10
3298;DHT22;1661;53.572;10.174;2022-11-15T11:58:16;12.30;83.00
3298;DHT22;1661;53.572;10.174;2022-11-15T12:00:49;12.30;82.50
3298;DHT22;1661;53.572;10.174;2022-11-15T12:03:25;12.40;82.70
3298;DHT22;1661;53.572;10.174;2022-11-15T12:05:56;12.50;82.40
3298;DHT22;1661;53.572;10.174;2022-11-15T12:08:31;12.50;82.20
3298;DHT22;1661;53.572;10.174;2022-11-15T12:11:03;12.50;82.20
3298;DHT22;1661;53.572;10.174;2022-11-15T12:13:33;12.60;82.00
3298;DHT22;1661;53.572;10.174;2022-11-15T12:16:07;12.60;81.70
3298;DHT22;1661;53.572;10.174;2022-11-15T12:18:35;12.60;81.80
3298;DHT22;1661;53.572;10.174;2022-11-15T12:21:06;12.70;81.60
3298;DHT22;1661;53.572;10.174;2022-11-15T12:23:40;12.70;81.50
3298;DHT22;1661;53.572;10.174;2022-11-15T12:26:14;12.80;81.40
3298;DHT22;1661;53.572;10.174;2022-11-15T12:28:47;12.80;81.40
3298;DHT22;1661;53.572;10.174;2022-11-15T12:31:18;12.90;81.10
3298;DHT22;1661;53.572;10.174;2022-11-15T12:33:48;12.90;80.90
3298;DHT22;1661;53.572;10.174;2022-11-15T12:36:33;12.90;80.70
3298;DHT22;1661;53.572;10.174;2022-11-15T12:39:03;13.00;80.70
3298;DHT22;1661;53.572;10.174;2022-11-15T12:41:32;12.90;80.40
3298;DHT22;1661;53.572;10.174;2022-11-15T12:43:59;13.00;80.50
3298;DHT22;1661;53.572;10.174;2022-11-15T12:47:00;13.00;80.40
3298;DHT22;1661;53.572;10.174;2022-11-15T12:49:51;13.00;80.50
3298;DHT22;1661;53.572;10.174;2022-11-15T12:52:19;13.10;80.40
3298;DHT22;1661;53.572;10.174;2022-11-15T12:55:30;13.20;80.20
3298;DHT22;1661;53.572;10.174;2022-11-15T12:58:26;13.30;80.20
3298;DHT22;1661;53.572;10.174;2022-11-15T13:00:53;13.50;79.80
3298;DHT22;1661;53.572;10.174;2022-11-15T13:03:26;13.50;79.30
3298;DHT22;1661;53.572;10.174;2022-11-15T13:06:40;13.60;79.30
3298;DHT22;1661;53.572;10.174;2022-11-15T13:12:10;13.70;78.90
3298;DHT22;1661;53.572;10.174;2022-11-15T13:14:45;13.70;78.50
3298;DHT22;1661;53.572;10.174;2022-11-15T13:17:34;13.70;78.50
3298;DHT22;1661;53.572;10.174;2022-11-15T13:20:20;13.70;78.50
3298;DHT22;1661;53.572;10.174;2022-11-15T13:22:49;13.70;78.50
3298;DHT22;1661;53.572;10.174;2022-11-15T13:25:31;13.80;78.50
3298;DHT22;1661;53.572;10.174;2022-11-15T13:28:10;13.80;78.50
3298;DHT22;1661;53.572;10.174;2022-11-15T13:30:38;13.80;78.40
3298;DHT22;1661;53.572;10.174;2022-11-15T13:33:09;13.80;78.40
3298;DHT22;1661;53.572;10.174;2022-11-15T13:35:40;13.70;78.60
3298;DHT22;1661;53.572;10.174;2022-11-15T13:38:19;13.70;78.80
3298;DHT22;1661;53.572;10.174;2022-11-15T13:40:47;13.70;79.00
3298;DHT22;1661;53.572;10.174;2022-11-15T13:43:31;13.70;78.90
3298;DHT22;1661;53.572;10.174;2022-11-15T13:46:10;13.60;79.20
3298;DHT22;1661;53.572;10.174;2022-11-15T13:48:37;13.50;79.30
3298;DHT22;1661;53.572;10.174;2022-11-15T13:51:12;13.50;79.60
3298;DHT22;1661;53.572;10.174;2022-11-15T13:53:47;13.50;79.80
3298;DHT22;1661;53.572;10.174;2022-11-15T13:56:16;13.50;79.70
3298;DHT22;1661;53.572;10.174;2022-11-15T13:58:46;13.50;79.60
3298;DHT22;1661;53.572;10.174;2022-11-15T14:01:17;13.50;79.80
3298;DHT22;1661;53.572;10.174;2022-11-15T14:03:52;13.50;79.70
3298;DHT22;1661;53.572;10.174;2022-11-15T14:06:20;13.60;79.80
3298;DHT22;1661;53.572;10.174;2022-11-15T14:09:00;13.50;79.70
3298;DHT22;1661;53.572;10.174;2022-11-15T14:11:28;13.60;79.90
3298;DHT22;1661;53.572;10.174;2022-11-15T14:14:13;13.60;79.70
3298;DHT22;1661;53.572;10.174;2022-11-15T14:16:42;13.60;79.80
3298;DHT22;1661;53.572;10.174;2022-11-15T14:19:11;13.70;79.50
3298;DHT22;1661;53.572;10.174;2022-11-15T14:22:13;13.70;79.30
3298;DHT22;1661;53.572;10.174;2022-11-15T14:24:42;13.80;79.40
3298;DHT22;1661;53.572;10.174;2022-11-15T14:27:29;13.80;79.20
3298;DHT22;1661;53.572;10.174;2022-11-15T14:29:57;13.90;78.80
3298;DHT22;1661;53.572;10.174;2022-11-15T14:32:26;14.00;78.50
3298;DHT22;1661;53.572;10.174;2022-11-15T14:34:55;14.00;78.40
3298;DHT22;1661;53.572;10.174;2022-11-15T14:37:24;14.00;78.30
3298;DHT22;1661;53.572;10.174;2022-11-15T14:39:54;14.00;78.10
3298;DHT22;1661;53.572;10.174;2022-11-15T14:42:39;14.00;78.10
3298;DHT22;1661;53.572;10.174;2022-11-15T14:45:16;13.90;78.30
3298;DHT22;1661;53.572;10.174;2022-11-15T14:47:43;13.80;78.40
3298;DHT22;1661;53.572;10.174;2022-11-15T14:50:12;13.70;78.60
3298;DHT22;1661;53.572;10.174;2022-11-15T14:52:39;13.70;78.80
3298;DHT22;1661;53.572;10.174;2022-11-15T14:55:15;13.80;78.80
3298;DHT22;1661;53.572;10.174;2022-11-15T14:57:42;13.70;78.70
3298;DHT22;1661;53.572;10.174;2022-11-15T15:00:14;13.70;78.70
3298;DHT22;1661;53.572;10.174;2022-11-15T15:02:42;13.70;78.80
3298;DHT22;1661;53.572;10.174;2022-11-15T15:05:15;13.60;78.90
3298;DHT22;1661;53.572;10.174;2022-11-15T15:07:42;13.60;79.10
3298;DHT22;1661;53.572;10.174;2022-11-15T15:10:09;13.50;79.20
3298;DHT22;1661;53.572;10.174;2022-11-15T15:12:36;13.40;79.80
3298;DHT22;1661;53.572;10.174;2022-11-15T15:15:13;13.40;79.90
3298;DHT22;1661;53.572;10.174;2022-11-15T15:17:40;13.40;79.90
3298;DHT22;1661;53.572;10.174;2022-11-15T15:20:08;13.30;80.00
3298;DHT22;1661;53.572;10.174;2022-11-15T15:22:35;13.30;80.10
3298;DHT22;1661;53.572;10.174;2022-11-15T15:25:02;13.20;80.20
3298;DHT22;1661;53.572;10.174;2022-11-15T15:27:29;13.10;80.50
3298;DHT22;1661;53.572;10.174;2022-11-15T15:29:56;13.00;80.80
3298;DHT22;1661;53.572;10.174;2022-11-15T15:32:24;13.00;81.10
3298;DHT22;1661;53.572;10.174;2022-11-15T15:34:51;13.00;81.10
3298;DHT22;1661;53.572;10.174;2022-11-15T15:37:22;12.90;81.30
3298;DHT22;1661;53.572;10.174;2022-11-15T15:39:50;12.90;81.40
3298;DHT22;1661;53.572;10.174;2022-11-15T15:42:18;12.90;81.30
3298;DHT22;1661;53.572;10.174;2022-11-15T15:44:45;12.80;81.50
3298;DHT22;1661;53.572;10.174;2022-11-15T15:47:12;12.80;81.70
3298;DHT22;1661;53.572;10.174;2022-11-15T15:49:42;12.70;81.80
3298;DHT22;1661;53.572;10.174;2022-11-15T15:52:09;12.70;82.00
3298;DHT22;1661;53.572;10.174;2022-11-15T15:54:37;12.70;82.20
3298;DHT22;1661;53.572;10.174;2022-11-15T15:57:04;12.70;82.30
3298;DHT22;1661;53.572;10.174;2022-11-15T15:59:31;12.60;82.40
3298;DHT22;1661;53.572;10.174;2022-11-15T16:01:58;12.50;82.80
3298;DHT22;1661;53.572;10.174;2022-11-15T16:04:25;12.50;83.10
3298;DHT22;1661;53.572;10.174;2022-11-15T16:06:57;12.50;83.30
3298;DHT22;1661;53.572;10.174;2022-11-15T16:09:24;12.40;83.50
3298;DHT22;1661;53.572;10.174;2022-11-15T16:12:06;12.40;83.60
3298;DHT22;1661;53.572;10.174;2022-11-15T16:14:33;12.40;83.70
3298;DHT22;1661;53.572;10.174;2022-11-15T16:17:00;12.40;83.80
3298;DHT22;1661;53.572;10.174;2022-11-15T16:19:27;12.30;84.00
3298;DHT22;1661;53.572;10.174;2022-11-15T16:21:55;12.20;84.30
3298;DHT22;1661;53.572;10.174;2022-11-15T16:24:22;12.20;84.70
3298;DHT22;1661;53.572;10.174;2022-11-15T16:26:50;12.10;85.10
3298;DHT22;1661;53.572;10.174;2022-11-15T16:29:17;12.00;85.50
3298;DHT22;1661;53.572;10.174;2022-11-15T16:31:44;12.00;85.80
3298;DHT22;1661;53.572;10.174;2022-11-15T16:34:11;12.00;85.90
3298;DHT22;1661;53.572;10.174;2022-11-15T16:36:39;12.00;86.10
3298;DHT22;1661;53.572;10.174;2022-11-15T16:39:12;11.90;86.40
3298;DHT22;1661;53.572;10.174;2022-11-15T16:41:41;11.90;86.60
3298;DHT22;1661;53.572;10.174;2022-11-15T16:44:12;11.90;86.80
3298;DHT22;1661;53.572;10.174;2022-11-15T16:46:41;11.90;86.80
3298;DHT22;1661;53.572;10.174;2022-11-15T16:49:12;11.90;86.80
3298;DHT22;1661;53.572;10.174;2022-11-15T16:51:39;11.90;86.90
3298;DHT22;1661;53.572;10.174;2022-11-15T16:54:08;11.90;86.90
3298;DHT22;1661;53.572;10.174;2022-11-15T16:56:35;12.00;86.90
3298;DHT22;1661;53.572;10.174;2022-11-15T16:59:01;12.00;86.90
3298;DHT22;1661;53.572;10.174;2022-11-15T17:01:31;12.00;86.80
3298;DHT22;1661;53.572;10.174;2022-11-15T17:03:58;11.90;87.00
3298;DHT22;1661;53.572;10.174;2022-11-15T17:06:37;11.90;87.20
3298;DHT22;1661;53.572;10.174;2022-11-15T17:09:04;11.90;87.20
3298;DHT22;1661;53.572;10.174;2022-11-15T17:11:33;11.80;87.40
3298;DHT22;1661;53.572;10.174;2022-11-15T17:14:00;11.80;87.50
3298;DHT22;1661;53.572;10.174;2022-11-15T17:16:27;11.90;87.40
3298;DHT22;1661;53.572;10.174;2022-11-15T17:18:54;11.90;87.40
3298;DHT22;1661;53.572;10.174;2022-11-15T17:21:21;11.90;87.40
3298;DHT22;1661;53.572;10.174;2022-11-15T17:23:48;11.90;87.30
3298;DHT22;1661;53.572;10.174;2022-11-15T17:26:15;11.90;87.20
3298;DHT22;1661;53.572;10.174;2022-11-15T17:28:43;12.00;87.20
3298;DHT22;1661;53.572;10.174;2022-11-15T17:31:11;12.00;87.10
3298;DHT22;1661;53.572;10.174;2022-11-15T17:33:39;12.00;87.00
3298;DHT22;1661;53.572;10.174;2022-11-15T17:36:09;12.00;86.90
3298;DHT22;1661;53.572;10.174;2022-11-15T17:38:39;12.00;87.00
3298;DHT22;1661;53.572;10.174;2022-11-15T17:41:08;12.00;87.00
3298;DHT22;1661;53.572;10.174;2022-11-15T17:43:36;12.00;87.00
3298;DHT22;1661;53.572;10.174;2022-11-15T17:46:06;12.00;86.90
3298;DHT22;1661;53.572;10.174;2022-11-15T17:48:34;12.00;87.00
3298;DHT22;1661;53.572;10.174;2022-11-15T17:51:02;12.00;87.00
3298;DHT22;1661;53.572;10.174;2022-11-15T17:53:31;11.90;86.90
3298;DHT22;1661;53.572;10.174;2022-11-15T17:56:01;12.00;86.90
3298;DHT22;1661;53.572;10.174;2022-11-15T17:58:28;12.00;86.80
3298;DHT22;1661;53.572;10.174;2022-11-15T18:01:03;12.00;86.80
3298;DHT22;1661;53.572;10.174;2022-11-15T18:03:34;11.90;86.90
3298;DHT22;1661;53.572;10.174;2022-11-15T18:06:01;11.90;87.20
3298;DHT22;1661;53.572;10.174;2022-11-15T18:08:28;11.80;87.40
3298;DHT22;1661;53.572;10.174;2022-11-15T18:11:05;11.80;87.50
3298;DHT22;1661;53.572;10.174;2022-11-15T18:13:33;11.80;87.80